METAR Data
IDs: Format: Raw Decoded Include TAF

Data at: 1004 UTC 13 Aug 2022

METAR for:VTUO (Buriram Arpt, 31, TH)
Text:VTUO 130900Z 31003KT 250V050 9999 VCSH FEW020CB SCT035 31/26 Q1007 TEMPO FM0920 TL0940 4000 RA
Temperature: 31.0°C ( 88°F)
Dewpoint: 26.0°C ( 79°F) [RH = 75%]
Pressure (altimeter):29.73 inches Hg (1007.0 mb)
Winds:from the NW (310 degrees) at 3 MPH (3 knots; 1.5 m/s)
Visibility:6 or more sm (10+ km)
Ceiling:at least 12,000 feet AGL
Clouds: few clouds at 2000 feet AGL, scattered clouds at 3500 feet AGL
Weather:VCSH (showers in vicinity)